createdAt,value
2023-02-04T00:01:18.133Z,1.00
2023-02-04T00:05:42.269Z,1.30
2023-02-04T00:10:08.490Z,1.27
2023-02-04T00:14:27.507Z,1.42
2023-02-04T00:18:47.874Z,1.27
2023-02-04T00:23:06.649Z,1.63
2023-02-04T00:27:26.500Z,1.58
2023-02-04T00:31:52.946Z,1.60
2023-02-04T00:36:15.565Z,1.40
2023-02-04T00:40:34.267Z,1.27
2023-02-04T00:44:53.698Z,1.67
2023-02-04T00:49:13.452Z,1.50
2023-02-04T00:53:31.513Z,1.40
2023-02-04T00:57:49.698Z,1.48
2023-02-04T01:02:09.016Z,1.40
2023-02-04T01:06:28.788Z,1.23
2023-02-04T01:10:46.789Z,1.25
2023-02-04T01:15:06.705Z,1.50
2023-02-04T01:19:27.560Z,1.20
2023-02-04T01:23:47.254Z,1.40
2023-02-04T01:28:05.397Z,1.17
2023-02-04T01:32:23.272Z,1.30
2023-02-04T01:36:43.064Z,1.40
2023-02-04T01:41:02.735Z,1.77
2023-02-04T01:45:20.562Z,1.50
2023-02-04T01:49:38.634Z,1.40
2023-02-04T01:53:57.928Z,1.02
2023-02-04T01:58:17.822Z,1.50
2023-02-04T02:02:44.276Z,1.70
2023-02-04T02:07:06.417Z,1.45
2023-02-04T02:11:26.069Z,1.75
2023-02-04T02:15:45.700Z,1.77
2023-02-04T02:20:03.986Z,1.70
2023-02-04T02:24:28.755Z,1.88
2023-02-04T02:28:50.151Z,2.10
2023-02-04T02:33:10.250Z,1.60
2023-02-04T02:37:28.180Z,1.70
2023-02-04T02:41:47.402Z,1.83
2023-02-04T02:46:08.254Z,1.80
2023-02-04T02:50:31.244Z,1.70
2023-02-04T02:54:53.705Z,1.70
2023-02-04T02:59:18.804Z,1.50
2023-02-04T03:03:40.407Z,1.50
2023-02-04T03:07:58.806Z,1.58
2023-02-04T03:12:17.206Z,1.60
2023-02-04T03:16:38.029Z,1.60
2023-02-04T03:20:56.245Z,1.52
2023-02-04T03:25:14.249Z,1.30
2023-02-04T03:29:32.209Z,1.43
2023-02-04T03:33:51.918Z,1.40
2023-02-04T03:38:11.340Z,1.23
2023-02-04T03:42:29.446Z,1.60
2023-02-04T03:46:47.407Z,1.40
2023-02-04T03:51:07.441Z,1.30
2023-02-04T03:55:26.864Z,1.50
2023-02-04T03:59:44.632Z,1.30
2023-02-04T04:04:03.005Z,1.30
2023-02-04T04:08:22.125Z,1.38
2023-02-04T04:12:41.902Z,1.20
2023-02-04T04:17:00.014Z,1.20
2023-02-04T04:21:18.116Z,1.10
2023-02-04T04:25:37.411Z,1.50
2023-02-04T04:29:57.236Z,1.20
2023-02-04T04:34:15.219Z,1.30
2023-02-04T04:38:33.336Z,1.60
2023-02-04T04:42:53.291Z,1.30
2023-02-04T04:47:12.520Z,1.40
2023-02-04T04:51:31.945Z,1.35
2023-02-04T04:55:51.643Z,1.10
2023-02-04T05:00:16.721Z,1.25
2023-02-04T05:04:34.472Z,1.27
2023-02-04T05:08:51.948Z,1.50
2023-02-04T05:13:10.508Z,1.20
2023-02-04T05:17:29.701Z,1.30
2023-02-04T05:21:49.286Z,1.30
2023-02-04T05:26:07.282Z,1.38
2023-02-04T05:30:25.269Z,1.30
2023-02-04T05:34:44.925Z,1.63
2023-02-04T05:39:04.643Z,1.30
2023-02-04T05:43:22.717Z,1.27
2023-02-04T05:47:40.678Z,1.40
2023-02-04T05:52:00.001Z,1.60
2023-02-04T05:56:19.723Z,1.20
2023-02-04T06:00:37.970Z,1.40
2023-02-04T06:04:56.005Z,1.50
2023-02-04T06:09:15.236Z,1.25
2023-02-04T06:13:35.032Z,1.50
2023-02-04T06:17:53.477Z,1.20
2023-02-04T06:22:11.209Z,1.40
2023-02-04T06:26:30.645Z,1.30
2023-02-04T06:30:50.559Z,1.38
2023-02-04T06:35:09.529Z,1.70
2023-02-04T06:39:29.589Z,1.30
2023-02-04T06:43:50.222Z,1.40
2023-02-04T06:48:08.666Z,1.43
2023-02-04T06:52:26.720Z,1.42
2023-02-04T06:56:45.007Z,1.83
2023-02-04T07:01:04.458Z,1.88
2023-02-04T07:05:24.044Z,1.50
2023-02-04T07:09:42.717Z,1.90
2023-02-04T07:14:00.271Z,1.90
2023-02-04T07:18:19.966Z,2.10
2023-02-04T07:22:39.460Z,2.90
2023-02-04T07:26:57.319Z,2.78
2023-02-04T07:31:15.602Z,3.03
2023-02-04T07:35:34.902Z,2.83
2023-02-04T07:39:54.672Z,3.15
2023-02-04T07:44:12.657Z,2.97
2023-02-04T07:48:30.711Z,2.60
2023-02-04T07:52:50.241Z,2.28
2023-02-04T07:57:09.786Z,2.50
2023-02-04T08:01:27.919Z,2.13
2023-02-04T08:05:46.064Z,1.90
2023-02-04T08:10:06.084Z,2.00
2023-02-04T08:14:25.120Z,1.90
2023-02-04T08:18:43.416Z,1.77
2023-02-04T08:23:01.220Z,1.77
2023-02-04T08:27:21.014Z,2.47
2023-02-04T08:31:40.859Z,1.70
2023-02-04T08:35:58.655Z,1.57
2023-02-04T08:40:16.598Z,2.10
2023-02-04T08:44:36.745Z,1.77
2023-02-04T08:48:55.770Z,1.80
2023-02-04T08:53:13.896Z,1.55
2023-02-04T08:57:32.043Z,1.40
2023-02-04T09:01:52.757Z,1.57
2023-02-04T09:06:12.338Z,2.00
2023-02-04T09:10:32.676Z,1.67
2023-02-04T09:14:50.705Z,2.00
2023-02-04T09:19:12.806Z,1.67
2023-02-04T09:23:32.648Z,1.80
2023-02-04T09:27:50.709Z,1.70
2023-02-04T09:32:08.784Z,1.90
2023-02-04T09:36:30.627Z,2.33
2023-02-04T09:40:51.683Z,1.60
2023-02-04T09:45:15.986Z,1.87
2023-02-04T09:49:33.786Z,2.00
2023-02-04T09:53:54.108Z,1.83
2023-02-04T09:58:17.533Z,2.38
2023-02-04T10:02:36.701Z,1.63
2023-02-04T10:06:54.764Z,1.88
2023-02-04T10:11:15.838Z,1.60
2023-02-04T10:15:34.643Z,1.73
2023-02-04T10:19:51.769Z,1.50
2023-02-04T10:24:15.923Z,1.73
2023-02-04T10:28:36.735Z,2.87
2023-02-04T10:32:55.801Z,1.60
2023-02-04T10:37:20.499Z,2.40
2023-02-04T10:41:49.434Z,1.70
2023-02-04T10:46:09.280Z,1.93
2023-02-04T10:50:30.710Z,1.55
2023-02-04T10:54:50.464Z,1.83
2023-02-04T10:59:18.403Z,1.90
2023-02-04T11:03:41.214Z,1.77
2023-02-04T11:08:02.753Z,1.60
2023-02-04T11:12:22.425Z,1.53
2023-02-04T11:16:49.460Z,1.77
2023-02-04T11:21:18.273Z,1.42
2023-02-04T11:25:39.617Z,1.65
2023-02-04T11:30:07.078Z,1.70
2023-02-04T11:34:51.051Z,1.40
2023-02-04T11:39:19.327Z,1.33
2023-02-04T11:43:37.749Z,1.80
2023-02-04T11:47:59.059Z,1.40
2023-02-04T11:52:16.854Z,1.80
2023-02-04T11:56:36.637Z,2.00
2023-02-04T12:00:56.212Z,1.92
2023-02-04T12:05:16.102Z,1.50
2023-02-04T12:09:35.215Z,1.70
2023-02-04T12:13:56.465Z,1.70
2023-02-04T12:18:16.673Z,1.52
2023-02-04T12:22:35.523Z,1.70
2023-02-04T12:26:53.611Z,1.80
2023-02-04T12:31:13.433Z,1.80
2023-02-04T12:35:33.258Z,1.70
2023-02-04T12:39:57.270Z,1.60
2023-02-04T12:44:24.023Z,1.38
2023-02-04T12:48:50.969Z,1.70
2023-02-04T12:53:19.084Z,1.90
2023-02-04T12:57:40.246Z,1.60
2023-02-04T13:02:05.650Z,2.03
2023-02-04T13:06:31.647Z,1.77
2023-02-04T13:10:52.124Z,1.90
2023-02-04T13:15:11.754Z,1.70
2023-02-04T13:19:34.882Z,1.90
2023-02-04T13:24:17.073Z,1.80
2023-02-04T13:28:35.441Z,1.75
2023-02-04T13:33:04.016Z,1.95
2023-02-04T13:37:24.226Z,1.70
2023-02-04T13:41:53.254Z,1.73
2023-02-04T13:46:19.639Z,1.70
2023-02-04T13:50:44.245Z,1.85
2023-02-04T13:55:03.813Z,1.93
2023-02-04T13:59:23.669Z,1.75
2023-02-04T14:03:46.657Z,2.17
2023-02-04T14:08:04.133Z,2.10
2023-02-04T14:12:28.481Z,1.88
2023-02-04T14:16:47.791Z,2.30
2023-02-04T14:21:12.591Z,1.50
2023-02-04T14:25:34.379Z,2.00
2023-02-04T14:29:52.893Z,1.85
2023-02-04T14:34:13.988Z,1.85
2023-02-04T14:38:33.843Z,1.60
2023-02-04T14:42:53.269Z,1.83
2023-02-04T14:47:11.421Z,1.60
2023-02-04T14:51:35.855Z,1.73
2023-02-04T14:55:53.486Z,1.50
2023-02-04T15:00:15.261Z,1.50
2023-02-04T15:04:32.836Z,2.10
2023-02-04T15:08:52.389Z,1.87
2023-02-04T15:13:11.951Z,1.77
2023-02-04T15:17:31.026Z,1.50
2023-02-04T15:21:54.151Z,1.60
2023-02-04T15:26:13.378Z,1.88
2023-02-04T15:30:34.448Z,1.80
2023-02-04T15:34:56.870Z,1.60
2023-02-04T15:39:17.380Z,2.38
2023-02-04T15:43:41.182Z,2.25
2023-02-04T15:48:03.624Z,2.70
2023-02-04T15:52:25.235Z,2.20
2023-02-04T15:56:44.450Z,3.05
2023-02-04T16:01:05.877Z,2.40
2023-02-04T16:05:25.286Z,2.10
2023-02-04T16:09:43.801Z,2.30
2023-02-04T16:14:01.343Z,2.70
2023-02-04T16:18:20.750Z,2.30
2023-02-04T16:22:40.654Z,2.53
2023-02-04T16:26:58.861Z,2.30
2023-02-04T16:31:16.900Z,3.65
2023-02-04T16:36:03.123Z,3.77
2023-02-04T16:40:20.772Z,3.00
2023-02-04T16:44:38.933Z,4.20
2023-02-04T16:48:56.569Z,2.30
2023-02-04T16:53:16.264Z,2.25
2023-02-04T16:57:35.921Z,2.20
2023-02-04T17:01:53.804Z,2.60
2023-02-04T17:06:16.341Z,2.05
2023-02-04T17:10:54.881Z,2.78
2023-02-04T17:15:13.940Z,2.72
2023-02-04T17:19:33.691Z,3.30
2023-02-04T17:23:52.608Z,3.10
2023-02-04T17:28:11.257Z,3.15
2023-02-04T17:32:31.080Z,3.53
2023-02-04T17:36:48.942Z,3.50
2023-02-04T17:41:06.969Z,3.85
2023-02-04T17:45:26.492Z,3.00
2023-02-04T17:49:46.233Z,3.13
2023-02-04T17:54:04.286Z,3.17
2023-02-04T17:58:24.874Z,3.30
2023-02-04T18:02:46.062Z,3.30
2023-02-04T18:07:06.909Z,3.55
2023-02-04T18:11:28.057Z,3.58
2023-02-04T18:15:48.697Z,3.73
2023-02-04T18:20:20.081Z,5.22
2023-02-04T18:24:42.089Z,6.57
2023-02-04T18:29:01.003Z,5.93
2023-02-04T18:33:22.094Z,5.70
2023-02-04T18:37:48.113Z,5.55
2023-02-04T18:42:15.646Z,5.05
2023-02-04T18:46:36.537Z,5.23
2023-02-04T18:50:55.500Z,5.75
2023-02-04T18:55:25.170Z,6.88
2023-02-04T18:59:42.871Z,7.17
2023-02-04T19:04:03.422Z,6.35
2023-02-04T19:08:27.597Z,6.97
2023-02-04T19:12:47.564Z,7.17
2023-02-04T19:17:22.598Z,8.63
2023-02-04T19:21:40.742Z,8.07
2023-02-04T19:25:58.609Z,7.38
2023-02-04T19:30:45.143Z,7.03
2023-02-04T19:35:13.822Z,7.88
2023-02-04T19:39:38.608Z,6.18
2023-02-04T19:44:09.892Z,6.20
2023-02-04T19:48:34.655Z,5.80
2023-02-04T19:52:58.526Z,6.10
2023-02-04T19:57:25.256Z,5.77
2023-02-04T20:01:43.066Z,7.18
2023-02-04T20:06:22.547Z,5.70
2023-02-04T20:10:40.658Z,7.25
2023-02-04T20:14:59.616Z,9.50
2023-02-04T20:19:20.298Z,6.40
2023-02-04T20:23:39.321Z,7.50
2023-02-04T20:28:04.136Z,7.80
2023-02-04T20:32:26.435Z,8.18
2023-02-04T20:36:44.665Z,7.20
2023-02-04T20:41:07.985Z,7.17
2023-02-04T20:45:35.175Z,7.03
2023-02-04T20:49:56.376Z,6.70
2023-02-04T20:54:18.465Z,6.47
2023-02-04T20:58:39.168Z,5.97
2023-02-04T21:03:01.112Z,6.40
2023-02-04T21:07:19.869Z,5.55
2023-02-04T21:11:39.444Z,5.30
2023-02-04T21:15:59.618Z,6.20
2023-02-04T21:20:18.966Z,5.40
2023-02-04T21:24:36.694Z,5.60
2023-02-04T21:28:54.733Z,5.93
2023-02-04T21:33:16.663Z,4.65
2023-02-04T21:37:33.939Z,5.47
2023-02-04T21:42:10.152Z,4.80
2023-02-04T21:46:28.620Z,4.63
2023-02-04T21:50:48.599Z,4.20
2023-02-04T21:55:08.312Z,4.07
2023-02-04T21:59:25.854Z,3.33
2023-02-04T22:03:43.797Z,3.30
2023-02-04T22:08:03.642Z,3.00
2023-02-04T22:12:22.976Z,2.83
2023-02-04T22:16:41.197Z,2.63
2023-02-04T22:20:59.154Z,2.30
2023-02-04T22:25:21.253Z,2.43
2023-02-04T22:29:38.566Z,2.10
2023-02-04T22:33:56.534Z,1.95
2023-02-04T22:38:14.409Z,2.40
2023-02-04T22:42:34.799Z,1.90
2023-02-04T22:46:54.057Z,2.40
2023-02-04T22:51:11.664Z,2.40
2023-02-04T22:55:29.986Z,2.50
2023-02-04T22:59:49.771Z,2.42
2023-02-04T23:04:08.784Z,2.60
2023-02-04T23:08:27.222Z,2.27
2023-02-04T23:12:44.813Z,2.40
2023-02-04T23:17:04.338Z,2.45
2023-02-04T23:21:24.200Z,2.10
2023-02-04T23:25:42.748Z,1.85
2023-02-04T23:30:00.238Z,2.13
2023-02-04T23:34:20.171Z,2.47
2023-02-04T23:38:39.410Z,2.58
2023-02-04T23:42:58.015Z,2.03
2023-02-04T23:47:15.664Z,1.40
2023-02-04T23:51:35.161Z,2.67
2023-02-04T23:55:54.813Z,2.45
